sensor_id;sensor_type;location;lat;lon;timestamp;temperature;humidity
3792;DHT22;1911;53.768;11.474;2023-07-29T00:02:00;16.90;99.90
3792;DHT22;1911;53.768;11.474;2023-07-29T00:04:25;16.90;99.90
3792;DHT22;1911;53.768;11.474;2023-07-29T00:06:51;16.90;99.90
3792;DHT22;1911;53.768;11.474;2023-07-29T00:09:17;17.00;99.90
3792;DHT22;1911;53.768;11.474;2023-07-29T00:11:42;17.00;99.90
3792;DHT22;1911;53.768;11.474;2023-07-29T00:14:08;17.00;99.90
3792;DHT22;1911;53.768;11.474;2023-07-29T00:16:33;17.10;99.90
3792;DHT22;1911;53.768;11.474;2023-07-29T00:18:59;17.20;99.90
3792;DHT22;1911;53.768;11.474;2023-07-29T00:21:24;17.20;99.90
3792;DHT22;1911;53.768;11.474;2023-07-29T00:23:50;17.20;99.90
3792;DHT22;1911;53.768;11.474;2023-07-29T00:26:15;17.30;99.90
3792;DHT22;1911;53.768;11.474;2023-07-29T00:28:41;17.30;99.90
3792;DHT22;1911;53.768;11.474;2023-07-29T00:31:07;17.30;99.90
3792;DHT22;1911;53.768;11.474;2023-07-29T00:33:32;17.30;99.90
3792;DHT22;1911;53.768;11.474;2023-07-29T00:35:58;17.30;99.90
3792;DHT22;1911;53.768;11.474;2023-07-29T00:38:27;17.40;99.90
3792;DHT22;1911;53.768;11.474;2023-07-29T00:40:52;17.40;99.90
3792;DHT22;1911;53.768;11.474;2023-07-29T00:43:18;17.50;99.90
3792;DHT22;1911;53.768;11.474;2023-07-29T00:45:44;17.50;99.90
3792;DHT22;1911;53.768;11.474;2023-07-29T00:48:10;17.50;99.90
3792;DHT22;1911;53.768;11.474;2023-07-29T00:50:36;17.50;99.90
3792;DHT22;1911;53.768;11.474;2023-07-29T00:53:02;17.60;99.90
3792;DHT22;1911;53.768;11.474;2023-07-29T00:55:28;17.60;99.90
3792;DHT22;1911;53.768;11.474;2023-07-29T00:57:54;17.60;99.90
3792;DHT22;1911;53.768;11.474;2023-07-29T01:00:20;17.60;99.90
3792;DHT22;1911;53.768;11.474;2023-07-29T01:02:46;17.60;99.90
3792;DHT22;1911;53.768;11.474;2023-07-29T01:05:14;17.60;99.90
3792;DHT22;1911;53.768;11.474;2023-07-29T01:08:09;17.70;99.90
3792;DHT22;1911;53.768;11.474;2023-07-29T01:13:44;17.70;99.90
3792;DHT22;1911;53.768;11.474;2023-07-29T01:16:28;17.70;99.90
3792;DHT22;1911;53.768;11.474;2023-07-29T01:18:55;17.70;99.90
3792;DHT22;1911;53.768;11.474;2023-07-29T01:21:23;17.80;99.90
3792;DHT22;1911;53.768;11.474;2023-07-29T01:23:58;17.80;99.90
3792;DHT22;1911;53.768;11.474;2023-07-29T01:26:24;17.80;99.90
3792;DHT22;1911;53.768;11.474;2023-07-29T01:28:50;17.80;99.90
3792;DHT22;1911;53.768;11.474;2023-07-29T01:31:22;17.80;99.90
3792;DHT22;1911;53.768;11.474;2023-07-29T01:33:56;17.80;99.90
3792;DHT22;1911;53.768;11.474;2023-07-29T01:36:27;17.90;99.90
3792;DHT22;1911;53.768;11.474;2023-07-29T01:38:54;17.90;99.90
3792;DHT22;1911;53.768;11.474;2023-07-29T01:41:20;17.90;99.90
3792;DHT22;1911;53.768;11.474;2023-07-29T01:43:47;17.90;99.90
3792;DHT22;1911;53.768;11.474;2023-07-29T01:46:13;17.90;99.90
3792;DHT22;1911;53.768;11.474;2023-07-29T01:48:40;17.90;99.90
3792;DHT22;1911;53.768;11.474;2023-07-29T01:51:06;17.90;99.90
3792;DHT22;1911;53.768;11.474;2023-07-29T01:53:32;17.90;99.90
3792;DHT22;1911;53.768;11.474;2023-07-29T01:55:58;17.90;99.90
3792;DHT22;1911;53.768;11.474;2023-07-29T01:58:24;17.90;99.90
3792;DHT22;1911;53.768;11.474;2023-07-29T02:00:50;17.90;99.90
3792;DHT22;1911;53.768;11.474;2023-07-29T02:03:15;17.90;99.90
3792;DHT22;1911;53.768;11.474;2023-07-29T02:05:41;17.90;99.90
3792;DHT22;1911;53.768;11.474;2023-07-29T02:08:10;17.80;99.90
3792;DHT22;1911;53.768;11.474;2023-07-29T02:10:36;17.80;99.90
3792;DHT22;1911;53.768;11.474;2023-07-29T02:13:03;17.80;99.90
3792;DHT22;1911;53.768;11.474;2023-07-29T02:15:28;17.80;99.90
3792;DHT22;1911;53.768;11.474;2023-07-29T02:17:54;17.80;99.90
3792;DHT22;1911;53.768;11.474;2023-07-29T02:20:20;17.70;99.90
3792;DHT22;1911;53.768;11.474;2023-07-29T02:22:47;17.70;99.90
3792;DHT22;1911;53.768;11.474;2023-07-29T02:25:14;17.70;99.90
3792;DHT22;1911;53.768;11.474;2023-07-29T02:27:39;17.70;99.90
3792;DHT22;1911;53.768;11.474;2023-07-29T02:30:06;17.70;99.90
3792;DHT22;1911;53.768;11.474;2023-07-29T02:32:31;17.70;99.90
3792;DHT22;1911;53.768;11.474;2023-07-29T02:34:57;17.70;99.90
3792;DHT22;1911;53.768;11.474;2023-07-29T02:37:22;17.70;99.90
3792;DHT22;1911;53.768;11.474;2023-07-29T02:39:48;17.70;99.90
3792;DHT22;1911;53.768;11.474;2023-07-29T02:42:14;17.60;99.90
3792;DHT22;1911;53.768;11.474;2023-07-29T02:44:40;17.60;99.90
3792;DHT22;1911;53.768;11.474;2023-07-29T02:47:05;17.60;99.90
3792;DHT22;1911;53.768;11.474;2023-07-29T02:49:31;17.60;99.90
3792;DHT22;1911;53.768;11.474;2023-07-29T02:51:57;17.60;99.90
3792;DHT22;1911;53.768;11.474;2023-07-29T02:54:22;17.60;99.90
3792;DHT22;1911;53.768;11.474;2023-07-29T02:56:49;17.50;99.90
3792;DHT22;1911;53.768;11.474;2023-07-29T02:59:15;17.50;99.90
3792;DHT22;1911;53.768;11.474;2023-07-29T03:01:40;17.50;99.90
3792;DHT22;1911;53.768;11.474;2023-07-29T03:04:06;17.50;99.90
3792;DHT22;1911;53.768;11.474;2023-07-29T03:06:32;17.40;99.90
3792;DHT22;1911;53.768;11.474;2023-07-29T03:08:57;17.30;99.90
3792;DHT22;1911;53.768;11.474;2023-07-29T03:11:23;17.40;99.90
3792;DHT22;1911;53.768;11.474;2023-07-29T03:13:48;17.40;99.90
3792;DHT22;1911;53.768;11.474;2023-07-29T03:16:15;17.50;99.90
3792;DHT22;1911;53.768;11.474;2023-07-29T03:18:42;17.50;99.90
3792;DHT22;1911;53.768;11.474;2023-07-29T03:21:09;17.50;99.90
3792;DHT22;1911;53.768;11.474;2023-07-29T03:23:35;17.50;99.90
3792;DHT22;1911;53.768;11.474;2023-07-29T03:26:02;17.50;99.90
3792;DHT22;1911;53.768;11.474;2023-07-29T03:28:33;17.40;99.90
3792;DHT22;1911;53.768;11.474;2023-07-29T03:30:59;17.50;99.90
3792;DHT22;1911;53.768;11.474;2023-07-29T03:33:25;17.50;99.90
3792;DHT22;1911;53.768;11.474;2023-07-29T03:35:52;17.50;99.90
3792;DHT22;1911;53.768;11.474;2023-07-29T03:38:17;17.50;99.90
3792;DHT22;1911;53.768;11.474;2023-07-29T03:40:43;17.50;99.90
3792;DHT22;1911;53.768;11.474;2023-07-29T03:43:09;17.50;99.90
3792;DHT22;1911;53.768;11.474;2023-07-29T03:45:36;17.50;99.90
3792;DHT22;1911;53.768;11.474;2023-07-29T03:48:02;17.50;99.90
3792;DHT22;1911;53.768;11.474;2023-07-29T03:50:29;17.50;99.90
3792;DHT22;1911;53.768;11.474;2023-07-29T03:52:55;17.60;99.90
3792;DHT22;1911;53.768;11.474;2023-07-29T03:55:21;17.60;99.90
3792;DHT22;1911;53.768;11.474;2023-07-29T03:57:47;17.60;99.90
3792;DHT22;1911;53.768;11.474;2023-07-29T04:00:12;17.60;99.90
3792;DHT22;1911;53.768;11.474;2023-07-29T04:02:38;17.60;99.90
3792;DHT22;1911;53.768;11.474;2023-07-29T04:05:04;17.60;99.90
3792;DHT22;1911;53.768;11.474;2023-07-29T04:07:30;17.60;99.90
3792;DHT22;1911;53.768;11.474;2023-07-29T04:09:56;17.50;99.90
3792;DHT22;1911;53.768;11.474;2023-07-29T04:12:22;17.60;99.90
3792;DHT22;1911;53.768;11.474;2023-07-29T04:14:48;17.60;99.90
3792;DHT22;1911;53.768;11.474;2023-07-29T04:17:14;17.60;99.90
3792;DHT22;1911;53.768;11.474;2023-07-29T04:19:39;17.60;99.90
3792;DHT22;1911;53.768;11.474;2023-07-29T04:22:05;17.60;99.90
3792;DHT22;1911;53.768;11.474;2023-07-29T04:24:31;17.70;99.90
3792;DHT22;1911;53.768;11.474;2023-07-29T04:26:56;17.70;99.90
3792;DHT22;1911;53.768;11.474;2023-07-29T04:29:22;17.70;99.90
3792;DHT22;1911;53.768;11.474;2023-07-29T04:31:49;17.70;99.90
3792;DHT22;1911;53.768;11.474;2023-07-29T04:34:15;17.70;99.90
3792;DHT22;1911;53.768;11.474;2023-07-29T04:36:40;17.70;99.90
3792;DHT22;1911;53.768;11.474;2023-07-29T04:39:06;17.70;99.90
3792;DHT22;1911;53.768;11.474;2023-07-29T04:41:31;17.70;99.90
3792;DHT22;1911;53.768;11.474;2023-07-29T04:43:57;17.80;99.90
3792;DHT22;1911;53.768;11.474;2023-07-29T04:46:22;17.80;99.90
3792;DHT22;1911;53.768;11.474;2023-07-29T04:48:48;17.80;99.90
3792;DHT22;1911;53.768;11.474;2023-07-29T04:51:14;17.90;99.90
3792;DHT22;1911;53.768;11.474;2023-07-29T04:53:39;17.90;99.90
3792;DHT22;1911;53.768;11.474;2023-07-29T04:56:05;17.90;99.90
3792;DHT22;1911;53.768;11.474;2023-07-29T04:58:30;17.90;99.90
3792;DHT22;1911;53.768;11.474;2023-07-29T05:01:00;17.90;99.90
3792;DHT22;1911;53.768;11.474;2023-07-29T05:03:25;18.00;99.90
3792;DHT22;1911;53.768;11.474;2023-07-29T05:05:51;18.10;99.90
3792;DHT22;1911;53.768;11.474;2023-07-29T05:08:18;18.10;99.90
3792;DHT22;1911;53.768;11.474;2023-07-29T05:10:44;18.20;99.90
3792;DHT22;1911;53.768;11.474;2023-07-29T05:13:49;18.30;99.90
3792;DHT22;1911;53.768;11.474;2023-07-29T05:16:14;18.40;99.90
3792;DHT22;1911;53.768;11.474;2023-07-29T05:18:40;18.50;99.90
3792;DHT22;1911;53.768;11.474;2023-07-29T05:21:07;18.50;99.90
3792;DHT22;1911;53.768;11.474;2023-07-29T05:23:33;18.60;99.90
3792;DHT22;1911;53.768;11.474;2023-07-29T05:25:59;18.60;99.90
3792;DHT22;1911;53.768;11.474;2023-07-29T05:28:24;18.60;99.90
3792;DHT22;1911;53.768;11.474;2023-07-29T05:30:50;18.80;99.90
3792;DHT22;1911;53.768;11.474;2023-07-29T05:33:16;19.00;99.90
3792;DHT22;1911;53.768;11.474;2023-07-29T05:35:41;19.30;99.90
3792;DHT22;1911;53.768;11.474;2023-07-29T05:38:07;19.30;99.90
3792;DHT22;1911;53.768;11.474;2023-07-29T05:40:34;19.30;99.90
3792;DHT22;1911;53.768;11.474;2023-07-29T05:42:59;19.20;99.90
3792;DHT22;1911;53.768;11.474;2023-07-29T05:45:25;19.10;99.90
3792;DHT22;1911;53.768;11.474;2023-07-29T05:47:50;19.00;99.90
3792;DHT22;1911;53.768;11.474;2023-07-29T05:50:16;18.90;99.90
3792;DHT22;1911;53.768;11.474;2023-07-29T05:52:42;18.80;99.90
3792;DHT22;1911;53.768;11.474;2023-07-29T05:55:08;18.70;99.90
3792;DHT22;1911;53.768;11.474;2023-07-29T05:57:33;18.70;99.90
3792;DHT22;1911;53.768;11.474;2023-07-29T05:59:59;18.80;99.90
3792;DHT22;1911;53.768;11.474;2023-07-29T06:02:24;18.80;99.90
3792;DHT22;1911;53.768;11.474;2023-07-29T06:04:50;18.80;99.90
3792;DHT22;1911;53.768;11.474;2023-07-29T06:07:15;18.80;99.90
3792;DHT22;1911;53.768;11.474;2023-07-29T06:09:41;18.90;99.90
3792;DHT22;1911;53.768;11.474;2023-07-29T06:12:07;19.00;99.90
3792;DHT22;1911;53.768;11.474;2023-07-29T06:14:32;19.10;99.90
3792;DHT22;1911;53.768;11.474;2023-07-29T06:16:58;19.10;99.90
3792;DHT22;1911;53.768;11.474;2023-07-29T06:19:24;19.10;99.90
3792;DHT22;1911;53.768;11.474;2023-07-29T06:21:49;19.10;99.90
3792;DHT22;1911;53.768;11.474;2023-07-29T06:24:15;19.10;99.90
3792;DHT22;1911;53.768;11.474;2023-07-29T06:26:40;19.20;99.90
3792;DHT22;1911;53.768;11.474;2023-07-29T06:29:06;19.20;99.90
3792;DHT22;1911;53.768;11.474;2023-07-29T06:31:31;19.20;99.90
3792;DHT22;1911;53.768;11.474;2023-07-29T06:33:58;19.20;99.90
3792;DHT22;1911;53.768;11.474;2023-07-29T06:36:24;19.20;99.90
3792;DHT22;1911;53.768;11.474;2023-07-29T06:38:49;19.30;99.90
3792;DHT22;1911;53.768;11.474;2023-07-29T06:41:15;19.50;99.90
3792;DHT22;1911;53.768;11.474;2023-07-29T06:43:41;19.60;99.90
3792;DHT22;1911;53.768;11.474;2023-07-29T06:46:07;19.50;99.90
3792;DHT22;1911;53.768;11.474;2023-07-29T06:48:32;19.50;99.90
3792;DHT22;1911;53.768;11.474;2023-07-29T06:50:58;19.50;99.90
3792;DHT22;1911;53.768;11.474;2023-07-29T06:53:26;19.50;99.90
3792;DHT22;1911;53.768;11.474;2023-07-29T06:55:52;19.40;99.90
3792;DHT22;1911;53.768;11.474;2023-07-29T06:58:17;19.60;99.90
3792;DHT22;1911;53.768;11.474;2023-07-29T07:00:43;19.70;99.90
3792;DHT22;1911;53.768;11.474;2023-07-29T07:03:09;19.80;99.90
3792;DHT22;1911;53.768;11.474;2023-07-29T07:05:34;20.00;99.90
3792;DHT22;1911;53.768;11.474;2023-07-29T07:08:00;20.00;99.90
3792;DHT22;1911;53.768;11.474;2023-07-29T07:10:25;19.90;99.90
3792;DHT22;1911;53.768;11.474;2023-07-29T07:12:51;20.00;99.90
3792;DHT22;1911;53.768;11.474;2023-07-29T07:15:16;20.60;99.90
3792;DHT22;1911;53.768;11.474;2023-07-29T07:17:42;20.80;99.90
3792;DHT22;1911;53.768;11.474;2023-07-29T07:20:08;20.80;99.90
3792;DHT22;1911;53.768;11.474;2023-07-29T07:22:33;20.60;99.90
3792;DHT22;1911;53.768;11.474;2023-07-29T07:24:59;20.50;99.90
3792;DHT22;1911;53.768;11.474;2023-07-29T07:27:24;20.30;99.90
3792;DHT22;1911;53.768;11.474;2023-07-29T07:29:50;20.20;99.90
3792;DHT22;1911;53.768;11.474;2023-07-29T07:32:16;20.20;99.90
3792;DHT22;1911;53.768;11.474;2023-07-29T07:34:41;20.10;99.90
3792;DHT22;1911;53.768;11.474;2023-07-29T07:37:07;20.20;99.90
3792;DHT22;1911;53.768;11.474;2023-07-29T07:39:32;20.40;99.90
3792;DHT22;1911;53.768;11.474;2023-07-29T07:41:58;20.60;99.90
3792;DHT22;1911;53.768;11.474;2023-07-29T07:44:24;20.80;99.90
3792;DHT22;1911;53.768;11.474;2023-07-29T07:46:52;20.90;99.90
3792;DHT22;1911;53.768;11.474;2023-07-29T07:49:17;21.30;99.90
3792;DHT22;1911;53.768;11.474;2023-07-29T07:51:44;21.50;99.90
3792;DHT22;1911;53.768;11.474;2023-07-29T07:54:09;21.70;99.90
3792;DHT22;1911;53.768;11.474;2023-07-29T07:56:35;22.00;99.90
3792;DHT22;1911;53.768;11.474;2023-07-29T07:59:00;22.90;99.90
3792;DHT22;1911;53.768;11.474;2023-07-29T08:01:26;23.80;99.90
3792;DHT22;1911;53.768;11.474;2023-07-29T08:03:51;24.90;99.90
3792;DHT22;1911;53.768;11.474;2023-07-29T08:06:17;25.60;99.90
3792;DHT22;1911;53.768;11.474;2023-07-29T08:08:43;25.50;42.90
3792;DHT22;1911;53.768;11.474;2023-07-29T08:11:08;25.10;99.90
3792;DHT22;1911;53.768;11.474;2023-07-29T08:13:34;24.80;99.90
3792;DHT22;1911;53.768;11.474;2023-07-29T08:15:59;25.10;99.90
3792;DHT22;1911;53.768;11.474;2023-07-29T08:18:25;25.40;99.90
3792;DHT22;1911;53.768;11.474;2023-07-29T08:20:55;25.40;57.60
3792;DHT22;1911;53.768;11.474;2023-07-29T08:23:21;25.50;68.70
3792;DHT22;1911;53.768;11.474;2023-07-29T08:25:58;25.30;71.70
3792;DHT22;1911;53.768;11.474;2023-07-29T08:28:35;25.50;76.40
3792;DHT22;1911;53.768;11.474;2023-07-29T08:31:01;25.50;14.40
3792;DHT22;1911;53.768;11.474;2023-07-29T08:33:27;25.10;46.50
3792;DHT22;1911;53.768;11.474;2023-07-29T08:35:53;24.70;99.90
3792;DHT22;1911;53.768;11.474;2023-07-29T08:38:20;24.90;99.90
3792;DHT22;1911;53.768;11.474;2023-07-29T08:43:25;26.00;78.40
3792;DHT22;1911;53.768;11.474;2023-07-29T08:45:52;26.20;91.70
3792;DHT22;1911;53.768;11.474;2023-07-29T08:48:20;26.10;57.70
3792;DHT22;1911;53.768;11.474;2023-07-29T08:50:47;26.00;84.60
3792;DHT22;1911;53.768;11.474;2023-07-29T08:53:13;25.60;71.00
3792;DHT22;1911;53.768;11.474;2023-07-29T08:55:39;25.00;99.90
3792;DHT22;1911;53.768;11.474;2023-07-29T08:58:05;24.70;99.90
3792;DHT22;1911;53.768;11.474;2023-07-29T09:00:31;24.50;99.90
3792;DHT22;1911;53.768;11.474;2023-07-29T09:02:57;24.60;99.90
3792;DHT22;1911;53.768;11.474;2023-07-29T09:05:27;24.50;99.90
3792;DHT22;1911;53.768;11.474;2023-07-29T09:07:54;24.60;99.90
3792;DHT22;1911;53.768;11.474;2023-07-29T09:10:25;24.40;99.90
3792;DHT22;1911;53.768;11.474;2023-07-29T09:12:51;23.90;99.90
3792;DHT22;1911;53.768;11.474;2023-07-29T09:15:31;23.30;99.90
3792;DHT22;1911;53.768;11.474;2023-07-29T09:17:57;22.80;99.90
3792;DHT22;1911;53.768;11.474;2023-07-29T09:20:27;22.50;99.90
3792;DHT22;1911;53.768;11.474;2023-07-29T09:22:58;22.30;99.90
3792;DHT22;1911;53.768;11.474;2023-07-29T09:25:29;22.20;99.90
3792;DHT22;1911;53.768;11.474;2023-07-29T09:28:02;22.10;99.90
3792;DHT22;1911;53.768;11.474;2023-07-29T09:30:32;22.10;99.90
3792;DHT22;1911;53.768;11.474;2023-07-29T09:32:58;22.20;99.90
3792;DHT22;1911;53.768;11.474;2023-07-29T09:35:28;22.60;99.90
3792;DHT22;1911;53.768;11.474;2023-07-29T09:37:53;22.90;99.90
3792;DHT22;1911;53.768;11.474;2023-07-29T09:40:19;23.20;99.90
3792;DHT22;1911;53.768;11.474;2023-07-29T09:42:54;23.60;99.90
3792;DHT22;1911;53.768;11.474;2023-07-29T09:45:21;23.90;99.90
3792;DHT22;1911;53.768;11.474;2023-07-29T09:47:47;23.90;99.90
3792;DHT22;1911;53.768;11.474;2023-07-29T09:50:13;23.90;99.90
3792;DHT22;1911;53.768;11.474;2023-07-29T09:52:39;23.80;99.90
3792;DHT22;1911;53.768;11.474;2023-07-29T09:55:05;23.60;99.90
3792;DHT22;1911;53.768;11.474;2023-07-29T09:57:32;23.50;99.90
3792;DHT22;1911;53.768;11.474;2023-07-29T09:59:58;23.40;99.90
3792;DHT22;1911;53.768;11.474;2023-07-29T10:02:24;23.20;99.90
3792;DHT22;1911;53.768;11.474;2023-07-29T10:04:52;23.00;99.90
3792;DHT22;1911;53.768;11.474;2023-07-29T10:07:18;23.00;99.90
3792;DHT22;1911;53.768;11.474;2023-07-29T10:09:45;22.90;99.90
3792;DHT22;1911;53.768;11.474;2023-07-29T10:12:11;23.10;99.90
3792;DHT22;1911;53.768;11.474;2023-07-29T10:14:40;23.20;99.90
3792;DHT22;1911;53.768;11.474;2023-07-29T10:17:06;23.30;99.90
3792;DHT22;1911;53.768;11.474;2023-07-29T10:19:34;23.30;99.90
3792;DHT22;1911;53.768;11.474;2023-07-29T10:22:00;23.40;99.90
3792;DHT22;1911;53.768;11.474;2023-07-29T10:24:30;23.40;99.90
3792;DHT22;1911;53.768;11.474;2023-07-29T10:26:58;23.20;99.90
3792;DHT22;1911;53.768;11.474;2023-07-29T10:29:24;23.20;99.90
3792;DHT22;1911;53.768;11.474;2023-07-29T10:31:54;23.20;99.90
3792;DHT22;1911;53.768;11.474;2023-07-29T10:34:23;23.30;99.90
3792;DHT22;1911;53.768;11.474;2023-07-29T10:36:50;23.50;99.90
3792;DHT22;1911;53.768;11.474;2023-07-29T10:39:16;23.60;99.90
3792;DHT22;1911;53.768;11.474;2023-07-29T10:41:55;23.60;99.90
3792;DHT22;1911;53.768;11.474;2023-07-29T10:47:14;23.90;99.90
3792;DHT22;1911;53.768;11.474;2023-07-29T10:49:51;23.80;99.90
3792;DHT22;1911;53.768;11.474;2023-07-29T10:55:03;23.50;99.90
3792;DHT22;1911;53.768;11.474;2023-07-29T10:57:39;23.40;99.90
3792;DHT22;1911;53.768;11.474;2023-07-29T11:00:07;23.30;99.90
3792;DHT22;1911;53.768;11.474;2023-07-29T11:02:35;23.10;99.90
3792;DHT22;1911;53.768;11.474;2023-07-29T11:05:06;22.90;99.90
3792;DHT22;1911;53.768;11.474;2023-07-29T11:07:45;22.50;99.90
3792;DHT22;1911;53.768;11.474;2023-07-29T11:10:12;22.10;99.90
3792;DHT22;1911;53.768;11.474;2023-07-29T11:15:17;21.50;99.90
3792;DHT22;1911;53.768;11.474;2023-07-29T11:17:54;21.40;99.90
3792;DHT22;1911;53.768;11.474;2023-07-29T11:20:22;21.40;99.90
3792;DHT22;1911;53.768;11.474;2023-07-29T11:22:48;21.50;99.90
3792;DHT22;1911;53.768;11.474;2023-07-29T11:25:15;21.60;99.90
3792;DHT22;1911;53.768;11.474;2023-07-29T11:27:41;21.80;99.90
3792;DHT22;1911;53.768;11.474;2023-07-29T11:30:09;21.80;99.90
3792;DHT22;1911;53.768;11.474;2023-07-29T11:32:35;22.00;99.90
3792;DHT22;1911;53.768;11.474;2023-07-29T11:35:08;22.10;99.90
3792;DHT22;1911;53.768;11.474;2023-07-29T11:37:35;22.10;99.90
3792;DHT22;1911;53.768;11.474;2023-07-29T11:40:02;22.30;99.90
3792;DHT22;1911;53.768;11.474;2023-07-29T11:42:28;22.40;99.90
3792;DHT22;1911;53.768;11.474;2023-07-29T11:44:57;22.60;99.90
3792;DHT22;1911;53.768;11.474;2023-07-29T11:47:23;22.60;99.90
3792;DHT22;1911;53.768;11.474;2023-07-29T11:49:49;22.60;99.90
3792;DHT22;1911;53.768;11.474;2023-07-29T11:52:14;22.50;99.90
3792;DHT22;1911;53.768;11.474;2023-07-29T11:54:44;22.40;99.90
3792;DHT22;1911;53.768;11.474;2023-07-29T11:57:09;22.50;99.90
3792;DHT22;1911;53.768;11.474;2023-07-29T11:59:36;22.60;99.90
3792;DHT22;1911;53.768;11.474;2023-07-29T12:02:14;22.70;99.90
3792;DHT22;1911;53.768;11.474;2023-07-29T12:04:41;22.70;99.90
3792;DHT22;1911;53.768;11.474;2023-07-29T12:07:07;22.40;99.90
3792;DHT22;1911;53.768;11.474;2023-07-29T12:09:36;22.20;99.90
3792;DHT22;1911;53.768;11.474;2023-07-29T12:12:04;21.80;99.90
3792;DHT22;1911;53.768;11.474;2023-07-29T12:14:30;21.60;99.90
3792;DHT22;1911;53.768;11.474;2023-07-29T12:17:00;21.40;99.90
3792;DHT22;1911;53.768;11.474;2023-07-29T12:19:34;21.40;99.90
3792;DHT22;1911;53.768;11.474;2023-07-29T12:22:02;21.20;99.90
3792;DHT22;1911;53.768;11.474;2023-07-29T12:24:30;21.20;99.90
3792;DHT22;1911;53.768;11.474;2023-07-29T12:26:56;21.00;99.90
3792;DHT22;1911;53.768;11.474;2023-07-29T12:29:21;20.90;99.90
3792;DHT22;1911;53.768;11.474;2023-07-29T12:31:48;20.80;99.90
3792;DHT22;1911;53.768;11.474;2023-07-29T12:34:20;20.80;99.90
3792;DHT22;1911;53.768;11.474;2023-07-29T12:36:50;20.90;99.90
3792;DHT22;1911;53.768;11.474;2023-07-29T12:39:23;21.00;99.90
3792;DHT22;1911;53.768;11.474;2023-07-29T12:41:51;21.20;99.90
3792;DHT22;1911;53.768;11.474;2023-07-29T12:44:17;21.50;99.90
3792;DHT22;1911;53.768;11.474;2023-07-29T12:46:42;21.70;99.90
3792;DHT22;1911;53.768;11.474;2023-07-29T12:49:08;21.80;99.90
3792;DHT22;1911;53.768;11.474;2023-07-29T12:51:34;21.90;99.90
3792;DHT22;1911;53.768;11.474;2023-07-29T12:54:00;21.90;99.90
3792;DHT22;1911;53.768;11.474;2023-07-29T12:56:25;21.90;99.90
3792;DHT22;1911;53.768;11.474;2023-07-29T12:58:51;21.80;99.90
3792;DHT22;1911;53.768;11.474;2023-07-29T13:01:17;21.80;99.90
3792;DHT22;1911;53.768;11.474;2023-07-29T13:03:47;21.80;99.90
3792;DHT22;1911;53.768;11.474;2023-07-29T13:06:13;21.70;99.90
3792;DHT22;1911;53.768;11.474;2023-07-29T13:08:39;21.70;99.90
3792;DHT22;1911;53.768;11.474;2023-07-29T13:11:05;21.80;99.90
3792;DHT22;1911;53.768;11.474;2023-07-29T13:13:31;21.80;99.90
3792;DHT22;1911;53.768;11.474;2023-07-29T13:15:57;21.90;99.90
3792;DHT22;1911;53.768;11.474;2023-07-29T13:18:23;22.00;99.90
3792;DHT22;1911;53.768;11.474;2023-07-29T13:20:48;22.10;99.90
3792;DHT22;1911;53.768;11.474;2023-07-29T13:23:15;22.10;99.90
3792;DHT22;1911;53.768;11.474;2023-07-29T13:25:41;22.20;99.90
3792;DHT22;1911;53.768;11.474;2023-07-29T13:28:07;22.20;99.90
3792;DHT22;1911;53.768;11.474;2023-07-29T13:30:33;22.20;99.90
3792;DHT22;1911;53.768;11.474;2023-07-29T13:32:58;22.30;99.90
3792;DHT22;1911;53.768;11.474;2023-07-29T13:35:24;22.50;99.90
3792;DHT22;1911;53.768;11.474;2023-07-29T13:37:49;22.80;99.90
3792;DHT22;1911;53.768;11.474;2023-07-29T13:40:15;23.10;99.90
3792;DHT22;1911;53.768;11.474;2023-07-29T13:42:41;23.30;99.90
3792;DHT22;1911;53.768;11.474;2023-07-29T13:45:07;23.30;99.90
3792;DHT22;1911;53.768;11.474;2023-07-29T13:47:32;23.40;99.90
3792;DHT22;1911;53.768;11.474;2023-07-29T13:49:59;23.50;99.90
3792;DHT22;1911;53.768;11.474;2023-07-29T13:52:24;23.70;99.90
3792;DHT22;1911;53.768;11.474;2023-07-29T13:54:50;23.60;99.90
3792;DHT22;1911;53.768;11.474;2023-07-29T13:57:15;23.40;99.90
3792;DHT22;1911;53.768;11.474;2023-07-29T13:59:41;23.30;99.90
3792;DHT22;1911;53.768;11.474;2023-07-29T14:02:06;23.20;99.90
3792;DHT22;1911;53.768;11.474;2023-07-29T14:04:33;22.90;99.90
3792;DHT22;1911;53.768;11.474;2023-07-29T14:06:58;22.60;99.90
3792;DHT22;1911;53.768;11.474;2023-07-29T14:09:25;22.40;99.90
3792;DHT22;1911;53.768;11.474;2023-07-29T14:11:51;22.20;99.90
3792;DHT22;1911;53.768;11.474;2023-07-29T14:14:16;22.10;99.90
3792;DHT22;1911;53.768;11.474;2023-07-29T14:16:42;22.00;99.90
3792;DHT22;1911;53.768;11.474;2023-07-29T14:19:07;21.90;99.90
3792;DHT22;1911;53.768;11.474;2023-07-29T14:21:33;22.00;99.90
3792;DHT22;1911;53.768;11.474;2023-07-29T14:23:59;21.90;99.90
3792;DHT22;1911;53.768;11.474;2023-07-29T14:26:26;21.80;99.90
3792;DHT22;1911;53.768;11.474;2023-07-29T14:28:52;21.60;99.90
3792;DHT22;1911;53.768;11.474;2023-07-29T14:31:18;21.40;99.90
3792;DHT22;1911;53.768;11.474;2023-07-29T14:33:44;21.30;99.90
3792;DHT22;1911;53.768;11.474;2023-07-29T14:36:10;21.20;99.90
3792;DHT22;1911;53.768;11.474;2023-07-29T14:38:36;21.20;99.90
3792;DHT22;1911;53.768;11.474;2023-07-29T14:41:02;21.40;99.90
3792;DHT22;1911;53.768;11.474;2023-07-29T14:43:28;21.70;99.90
3792;DHT22;1911;53.768;11.474;2023-07-29T14:45:53;21.90;99.90
3792;DHT22;1911;53.768;11.474;2023-07-29T14:48:19;22.10;99.90
3792;DHT22;1911;53.768;11.474;2023-07-29T14:50:44;22.20;99.90
3792;DHT22;1911;53.768;11.474;2023-07-29T14:53:11;22.30;99.90
3792;DHT22;1911;53.768;11.474;2023-07-29T14:55:37;22.20;99.90
3792;DHT22;1911;53.768;11.474;2023-07-29T14:58:03;22.20;99.90
3792;DHT22;1911;53.768;11.474;2023-07-29T15:00:29;22.20;99.90
3792;DHT22;1911;53.768;11.474;2023-07-29T15:02:54;22.20;99.90
3792;DHT22;1911;53.768;11.474;2023-07-29T15:05:20;22.20;99.90
3792;DHT22;1911;53.768;11.474;2023-07-29T15:07:46;22.30;99.90
3792;DHT22;1911;53.768;11.474;2023-07-29T15:10:14;22.30;99.90
3792;DHT22;1911;53.768;11.474;2023-07-29T15:12:41;22.30;99.90
3792;DHT22;1911;53.768;11.474;2023-07-29T15:15:07;22.40;99.90
3792;DHT22;1911;53.768;11.474;2023-07-29T15:17:33;22.40;99.90
3792;DHT22;1911;53.768;11.474;2023-07-29T15:19:59;22.60;99.90
3792;DHT22;1911;53.768;11.474;2023-07-29T15:22:24;22.70;99.90
3792;DHT22;1911;53.768;11.474;2023-07-29T15:24:50;22.70;99.90
3792;DHT22;1911;53.768;11.474;2023-07-29T15:27:15;22.70;99.90
3792;DHT22;1911;53.768;11.474;2023-07-29T15:29:41;22.80;99.90
3792;DHT22;1911;53.768;11.474;2023-07-29T15:32:07;22.90;99.90
3792;DHT22;1911;53.768;11.474;2023-07-29T15:34:33;22.80;99.90
3792;DHT22;1911;53.768;11.474;2023-07-29T15:36:58;22.90;99.90
3792;DHT22;1911;53.768;11.474;2023-07-29T15:39:24;22.90;99.90
3792;DHT22;1911;53.768;11.474;2023-07-29T15:41:50;23.10;99.90
3792;DHT22;1911;53.768;11.474;2023-07-29T15:44:16;23.10;99.90
3792;DHT22;1911;53.768;11.474;2023-07-29T15:46:42;23.00;99.90
3792;DHT22;1911;53.768;11.474;2023-07-29T15:49:08;23.00;1.00
3792;DHT22;1911;53.768;11.474;2023-07-29T15:51:35;23.10;1.00
3792;DHT22;1911;53.768;11.474;2023-07-29T15:54:01;23.30;1.00
3792;DHT22;1911;53.768;11.474;2023-07-29T15:56:29;23.50;1.00
3792;DHT22;1911;53.768;11.474;2023-07-29T15:58:56;23.50;99.90